createdAt,value
2022-09-11T00:02:17.481Z,23.40
2022-09-11T00:04:47.805Z,22.93
2022-09-11T00:07:17.539Z,23.87
2022-09-11T00:09:47.296Z,26.00
2022-09-11T00:12:17.252Z,23.02
2022-09-11T00:14:47.007Z,24.40
2022-09-11T00:17:17.224Z,21.93
2022-09-11T00:19:46.959Z,22.87
2022-09-11T00:22:16.396Z,21.03
2022-09-11T00:24:46.154Z,21.90
2022-09-11T00:27:16.171Z,21.93
2022-09-11T00:29:46.189Z,21.25
2022-09-11T00:32:15.940Z,21.13
2022-09-11T00:34:46.747Z,22.13
2022-09-11T00:37:16.493Z,22.40
2022-09-11T00:39:47.073Z,22.23
2022-09-11T00:42:16.808Z,21.52
2022-09-11T00:44:52.301Z,20.73
2022-09-11T00:47:22.424Z,22.10
2022-09-11T00:49:55.211Z,20.53
2022-09-11T00:52:34.230Z,21.40
2022-09-11T00:55:15.851Z,20.90
2022-09-11T00:57:51.704Z,20.88
2022-09-11T01:00:22.682Z,20.77
2022-09-11T01:02:55.114Z,21.67
2022-09-11T01:05:27.078Z,21.83
2022-09-11T01:07:57.573Z,21.90
2022-09-11T01:10:35.856Z,22.07
2022-09-11T01:13:29.592Z,23.23
2022-09-11T01:16:14.191Z,21.93
2022-09-11T01:19:08.890Z,20.57
2022-09-11T01:22:04.175Z,21.17
2022-09-11T01:24:45.698Z,21.45
2022-09-11T01:27:48.153Z,21.77
2022-09-11T01:30:21.057Z,18.92
2022-09-11T01:33:02.350Z,21.50
2022-09-11T01:35:46.656Z,20.57
2022-09-11T01:38:25.071Z,21.13
2022-09-11T01:40:58.070Z,19.98
2022-09-11T01:43:30.740Z,21.17
2022-09-11T01:46:05.437Z,21.57
2022-09-11T01:48:44.221Z,20.35
2022-09-11T01:51:22.435Z,19.97
2022-09-11T01:53:54.116Z,21.33
2022-09-11T01:56:26.896Z,21.35
2022-09-11T01:59:00.065Z,20.60
2022-09-11T02:01:34.105Z,20.93
2022-09-11T02:04:16.503Z,20.75
2022-09-11T02:06:53.437Z,20.08
2022-09-11T02:09:27.997Z,21.00
2022-09-11T02:12:01.745Z,20.57
2022-09-11T02:14:40.738Z,19.20
2022-09-11T02:17:36.452Z,19.40
2022-09-11T02:20:09.538Z,21.20
2022-09-11T02:22:40.291Z,21.00
2022-09-11T02:25:10.130Z,21.30
2022-09-11T02:27:40.997Z,21.17
2022-09-11T02:30:14.332Z,20.67
2022-09-11T02:32:45.487Z,21.47
2022-09-11T02:35:16.426Z,21.27
2022-09-11T02:37:51.197Z,20.48
2022-09-11T02:40:39.449Z,20.67
2022-09-11T02:43:22.267Z,20.03
2022-09-11T02:46:03.609Z,21.17
2022-09-11T02:49:07.667Z,20.70
2022-09-11T02:52:05.895Z,20.47
2022-09-11T02:54:56.786Z,19.27
2022-09-11T02:57:35.623Z,19.70
2022-09-11T03:00:09.799Z,19.40
2022-09-11T03:02:43.145Z,20.07
2022-09-11T03:05:13.454Z,19.73
2022-09-11T03:07:43.642Z,19.40
2022-09-11T03:10:14.861Z,20.20
2022-09-11T03:12:44.601Z,19.77
2022-09-11T03:15:16.116Z,18.80
2022-09-11T03:17:46.290Z,21.12
2022-09-11T03:20:16.887Z,19.97
2022-09-11T03:22:48.878Z,20.25
2022-09-11T03:25:19.035Z,19.90
2022-09-11T03:27:48.960Z,23.53
2022-09-11T03:30:18.762Z,22.87
2022-09-11T03:32:50.480Z,23.32
2022-09-11T03:35:20.860Z,21.42
2022-09-11T03:37:50.615Z,22.27
2022-09-11T03:40:20.522Z,20.83
2022-09-11T03:42:50.327Z,19.97
2022-09-11T03:45:21.387Z,21.00
2022-09-11T03:47:51.583Z,20.10
2022-09-11T03:50:21.402Z,19.80
2022-09-11T03:52:51.668Z,20.57
2022-09-11T03:55:22.977Z,19.57
2022-09-11T03:57:52.863Z,20.20
2022-09-11T04:00:22.942Z,20.48
2022-09-11T04:02:55.556Z,19.20
2022-09-11T04:05:27.234Z,20.13
2022-09-11T04:07:57.051Z,21.13
2022-09-11T04:10:26.565Z,20.13
2022-09-11T04:12:57.421Z,19.98
2022-09-11T04:15:27.242Z,19.47
2022-09-11T04:18:00.065Z,19.98
2022-09-11T04:20:29.172Z,19.02
2022-09-11T04:22:59.088Z,19.00
2022-09-11T04:25:28.933Z,18.83
2022-09-11T04:27:58.687Z,18.63
2022-09-11T04:30:28.437Z,18.85
2022-09-11T04:32:58.910Z,18.50
2022-09-11T04:35:29.721Z,19.80
2022-09-11T04:37:59.765Z,17.60
2022-09-11T04:40:31.289Z,18.12
2022-09-11T04:43:01.581Z,18.23
2022-09-11T04:45:33.146Z,18.03
2022-09-11T04:48:03.707Z,17.43
2022-09-11T04:50:33.629Z,18.87
2022-09-11T04:53:23.151Z,17.83
2022-09-11T04:55:52.968Z,18.57
2022-09-11T04:58:22.728Z,17.90
2022-09-11T05:00:53.400Z,18.80
2022-09-11T05:03:23.252Z,18.53
2022-09-11T05:05:53.377Z,17.47
2022-09-11T05:08:26.645Z,19.00
2022-09-11T05:10:57.514Z,18.20
2022-09-11T05:13:36.074Z,18.57
2022-09-11T05:16:09.303Z,19.07
2022-09-11T05:18:41.020Z,19.48
2022-09-11T05:21:16.587Z,18.30
2022-09-11T05:23:52.076Z,18.50
2022-09-11T05:26:24.632Z,19.80
2022-09-11T05:29:00.935Z,20.10
2022-09-11T05:31:34.913Z,22.02
2022-09-11T05:34:06.745Z,22.50
2022-09-11T05:36:36.866Z,22.48
2022-09-11T05:39:06.973Z,24.05
2022-09-11T05:41:36.887Z,23.80
2022-09-11T05:44:06.752Z,23.93
2022-09-11T05:46:37.681Z,24.23
2022-09-11T05:49:08.537Z,23.50
2022-09-11T05:51:39.811Z,24.53
2022-09-11T05:54:09.732Z,21.93
2022-09-11T05:56:39.602Z,19.10
2022-09-11T05:59:14.689Z,20.13
2022-09-11T06:01:47.447Z,18.37
2022-09-11T06:04:18.921Z,18.13
2022-09-11T06:06:50.001Z,18.27
2022-09-11T06:09:20.183Z,16.37
2022-09-11T06:11:50.914Z,16.50
2022-09-11T06:14:21.406Z,18.47
2022-09-11T06:16:51.879Z,18.60
2022-09-11T06:19:21.801Z,17.40
2022-09-11T06:21:51.967Z,16.90
2022-09-11T06:24:23.423Z,19.12
2022-09-11T06:26:53.552Z,18.97
2022-09-11T06:29:23.895Z,16.80
2022-09-11T06:31:54.080Z,16.70
2022-09-11T06:34:25.327Z,17.33
2022-09-11T06:36:56.023Z,16.20
2022-09-11T06:39:26.536Z,16.43
2022-09-11T06:41:56.699Z,17.47
2022-09-11T06:44:28.152Z,16.87
2022-09-11T06:47:00.068Z,16.82
2022-09-11T06:49:30.347Z,16.82
2022-09-11T06:52:14.839Z,14.97
2022-09-11T06:54:46.290Z,17.30
2022-09-11T06:57:17.208Z,17.50
2022-09-11T06:59:47.103Z,17.73
2022-09-11T07:02:18.162Z,17.52
2022-09-11T07:04:48.696Z,18.17
2022-09-11T07:07:19.510Z,17.87
2022-09-11T07:09:49.918Z,18.90
2022-09-11T07:12:21.473Z,18.77
2022-09-11T07:14:51.704Z,19.23
2022-09-11T07:17:21.521Z,19.37
2022-09-11T07:19:52.711Z,20.20
2022-09-11T07:22:22.582Z,18.57
2022-09-11T07:24:55.527Z,19.70
2022-09-11T07:27:25.418Z,19.47
2022-09-11T07:29:55.819Z,18.60
2022-09-11T07:32:27.027Z,18.50
2022-09-11T07:34:56.917Z,18.87
2022-09-11T07:37:26.649Z,19.77
2022-09-11T07:39:58.099Z,19.65
2022-09-11T07:42:29.880Z,20.65
2022-09-11T07:44:59.702Z,22.20
2022-09-11T07:47:29.353Z,21.20
2022-09-11T07:49:59.571Z,22.00
2022-09-11T07:52:29.350Z,21.57
2022-09-11T07:55:01.304Z,22.07
2022-09-11T07:57:32.484Z,23.00
2022-09-11T08:00:04.924Z,23.98
2022-09-11T08:02:37.164Z,23.60
2022-09-11T08:05:07.915Z,23.12
2022-09-11T08:07:38.207Z,24.18
2022-09-11T08:10:26.718Z,23.90
2022-09-11T08:12:42.961Z,23.75
2022-09-11T08:15:14.052Z,25.43
2022-09-11T08:17:44.161Z,25.25
2022-09-11T08:20:14.048Z,25.23
2022-09-11T08:22:44.088Z,25.77
2022-09-11T08:25:13.808Z,25.27
2022-09-11T08:27:43.860Z,26.37
2022-09-11T08:30:15.317Z,26.20
2022-09-11T08:32:45.516Z,28.27
2022-09-11T08:35:15.498Z,27.17
2022-09-11T08:37:45.550Z,28.45
2022-09-11T08:40:15.789Z,28.93
2022-09-11T08:42:47.302Z,29.05
2022-09-11T08:45:20.758Z,28.57
2022-09-11T08:47:56.950Z,30.25
2022-09-11T08:53:01.387Z,28.75
2022-09-11T08:55:41.361Z,29.98
2022-09-11T08:58:39.018Z,28.65
2022-09-11T09:03:59.947Z,27.32
2022-09-11T09:06:53.930Z,29.45
2022-09-11T09:09:44.463Z,29.10
2022-09-11T09:12:20.784Z,30.75
2022-09-11T09:15:04.821Z,29.60
2022-09-11T09:17:37.805Z,29.17
2022-09-11T09:20:23.149Z,28.62
2022-09-11T09:22:55.992Z,26.67
2022-09-11T09:25:27.611Z,26.63
2022-09-11T09:28:10.023Z,27.13
2022-09-11T09:31:00.682Z,25.60
2022-09-11T09:33:37.608Z,27.30
2022-09-11T09:36:17.378Z,25.53
2022-09-11T09:38:48.155Z,24.57
2022-09-11T09:41:30.364Z,25.10
2022-09-11T09:44:19.518Z,24.55
2022-09-11T09:46:51.208Z,23.57
2022-09-11T09:49:35.907Z,22.95
2022-09-11T09:52:20.296Z,21.50
2022-09-11T09:55:04.735Z,22.27
2022-09-11T09:57:37.543Z,21.97
2022-09-11T10:00:11.840Z,21.32
2022-09-11T10:02:53.253Z,20.93
2022-09-11T10:05:35.059Z,18.63
2022-09-11T10:08:10.906Z,19.02
2022-09-11T10:10:41.911Z,18.23
2022-09-11T10:13:22.001Z,17.97
2022-09-11T10:15:54.308Z,16.67
2022-09-11T10:18:40.085Z,14.87
2022-09-11T10:21:18.749Z,14.20
2022-09-11T10:24:02.448Z,11.57
2022-09-11T10:26:47.756Z,11.33
2022-09-11T10:29:20.984Z,11.45
2022-09-11T10:31:56.439Z,15.10
2022-09-11T10:34:29.205Z,16.77
2022-09-11T10:37:05.073Z,14.33
2022-09-11T10:39:37.523Z,17.63
2022-09-11T10:42:16.728Z,17.07
2022-09-11T10:44:48.076Z,17.97
2022-09-11T10:47:29.700Z,19.90
2022-09-11T10:50:20.438Z,18.53
2022-09-11T10:53:01.810Z,19.23
2022-09-11T10:55:44.869Z,19.27
2022-09-11T10:58:26.809Z,18.10
2022-09-11T11:00:56.668Z,16.00
2022-09-11T11:03:28.992Z,14.40
2022-09-11T11:06:34.940Z,15.20
2022-09-11T11:09:31.239Z,13.23
2022-09-11T11:12:12.641Z,12.73
2022-09-11T11:14:51.262Z,10.07
2022-09-11T11:17:35.985Z,7.60
2022-09-11T11:20:14.156Z,7.10
2022-09-11T11:23:01.272Z,7.30
2022-09-11T11:25:40.939Z,4.80
2022-09-11T11:28:14.454Z,4.30
2022-09-11T11:31:03.449Z,5.70
2022-09-11T11:33:53.813Z,4.63
2022-09-11T11:36:32.289Z,3.17
2022-09-11T11:39:19.999Z,4.80
2022-09-11T11:41:52.790Z,7.93
2022-09-11T11:44:40.470Z,10.03
2022-09-11T11:47:11.350Z,8.23
2022-09-11T11:49:52.882Z,5.93
2022-09-11T11:52:37.144Z,5.10
2022-09-11T11:55:26.169Z,6.92
2022-09-11T11:58:13.953Z,6.95
2022-09-11T12:00:46.742Z,6.80
2022-09-11T12:03:37.493Z,5.40
2022-09-11T12:06:08.547Z,4.80
2022-09-11T12:08:46.210Z,4.73
2022-09-11T12:11:19.222Z,4.00
2022-09-11T12:13:49.493Z,3.67
2022-09-11T12:16:34.760Z,3.80
2022-09-11T12:19:19.828Z,3.43
2022-09-11T12:21:58.504Z,2.67
2022-09-11T12:24:47.531Z,4.25
2022-09-11T12:27:39.266Z,3.40
2022-09-11T12:30:12.017Z,3.20
2022-09-11T12:32:52.461Z,3.15
2022-09-11T12:35:38.069Z,3.62
2022-09-11T12:38:12.468Z,3.67
2022-09-11T12:40:57.257Z,3.60
2022-09-11T12:43:38.395Z,3.10
2022-09-11T12:46:10.949Z,3.30
2022-09-11T12:49:00.233Z,4.00
2022-09-11T12:51:24.005Z,4.10
2022-09-11T12:53:58.645Z,4.07
2022-09-11T12:56:31.242Z,3.93
2022-09-11T12:59:04.735Z,4.03
2022-09-11T13:01:40.227Z,3.80
2022-09-11T13:04:13.658Z,4.18
2022-09-11T13:06:56.105Z,3.70
2022-09-11T13:09:37.699Z,4.37
2022-09-11T13:12:26.405Z,4.80
2022-09-11T13:14:59.241Z,4.20
2022-09-11T13:17:31.136Z,4.60
2022-09-11T13:20:09.852Z,5.28
2022-09-11T13:22:39.570Z,4.80
2022-09-11T13:25:19.845Z,4.26
2022-09-11T13:27:51.508Z,4.37
2022-09-11T13:30:23.953Z,4.03
2022-09-11T13:33:08.263Z,4.45
2022-09-11T13:35:41.417Z,3.60
2022-09-11T13:38:17.002Z,3.62
2022-09-11T13:40:52.277Z,3.92
2022-09-11T13:43:29.253Z,4.10
2022-09-11T13:46:18.590Z,3.90
2022-09-11T13:48:50.870Z,4.03
2022-09-11T13:51:29.598Z,4.20
2022-09-11T13:54:11.677Z,3.60
2022-09-11T13:56:48.256Z,4.30
2022-09-11T13:59:46.110Z,4.50
2022-09-11T14:02:27.865Z,4.83
2022-09-11T14:05:09.561Z,4.97
2022-09-11T14:08:08.651Z,5.40
2022-09-11T14:10:47.317Z,6.37
2022-09-11T14:13:37.856Z,5.63
2022-09-11T14:16:10.924Z,5.03
2022-09-11T14:19:04.343Z,5.80
2022-09-11T14:21:36.451Z,6.30
2022-09-11T14:24:09.728Z,5.30
2022-09-11T14:26:42.989Z,5.20
2022-09-11T14:32:36.714Z,5.37
2022-09-11T14:35:10.547Z,5.15
2022-09-11T14:37:45.849Z,4.20
2022-09-11T14:40:20.183Z,5.65
2022-09-11T14:42:50.120Z,4.63
2022-09-11T14:45:22.891Z,4.95
2022-09-11T14:47:53.338Z,4.97
2022-09-11T14:50:24.490Z,4.70
2022-09-11T14:52:53.946Z,4.80
2022-09-11T14:55:23.750Z,6.03
2022-09-11T14:57:53.488Z,6.37
2022-09-11T15:00:23.292Z,6.05
2022-09-11T15:02:53.792Z,5.33
2022-09-11T15:05:24.544Z,5.62
2022-09-11T15:07:54.281Z,4.77
2022-09-11T15:10:23.771Z,5.57
2022-09-11T15:12:54.980Z,4.53
2022-09-11T15:15:27.413Z,6.20
2022-09-11T15:17:57.453Z,5.53
2022-09-11T15:20:27.654Z,6.20
2022-09-11T15:22:57.647Z,5.10
2022-09-11T15:25:27.538Z,5.30
2022-09-11T15:27:57.044Z,4.65
2022-09-11T15:30:27.778Z,6.47
2022-09-11T15:32:57.575Z,5.27
2022-09-11T15:35:32.651Z,6.23
2022-09-11T15:37:59.918Z,6.77
2022-09-11T15:40:29.513Z,6.53
2022-09-11T15:42:59.339Z,6.70
2022-09-11T15:45:29.108Z,6.50
2022-09-11T15:48:02.814Z,7.77
2022-09-11T15:50:32.473Z,7.60
2022-09-11T15:53:02.452Z,6.50
2022-09-11T15:55:32.176Z,7.23
2022-09-11T15:58:02.089Z,7.87
2022-09-11T16:00:31.989Z,6.92
2022-09-11T16:03:02.104Z,7.23
2022-09-11T16:05:32.245Z,7.50
2022-09-11T16:08:02.269Z,7.67
2022-09-11T16:10:33.579Z,6.80
2022-09-11T16:13:03.882Z,8.00
2022-09-11T16:15:35.446Z,7.62
2022-09-11T16:18:09.668Z,8.40
2022-09-11T16:20:43.831Z,7.47
2022-09-11T16:23:13.681Z,8.87
2022-09-11T16:25:44.583Z,6.87
2022-09-11T16:28:14.076Z,6.23
2022-09-11T16:30:46.660Z,6.90
2022-09-11T16:33:14.937Z,7.62
2022-09-11T16:35:45.204Z,8.60
2022-09-11T16:38:14.951Z,7.78
2022-09-11T16:40:44.679Z,7.90
2022-09-11T16:43:21.391Z,7.90
2022-09-11T16:45:52.663Z,7.67
2022-09-11T16:48:24.048Z,8.00
2022-09-11T16:50:55.213Z,7.77
2022-09-11T16:53:27.283Z,7.67
2022-09-11T16:55:57.201Z,7.07
2022-09-11T16:58:26.669Z,7.70
2022-09-11T17:00:56.548Z,7.27
2022-09-11T17:03:26.587Z,7.70
2022-09-11T17:05:56.787Z,6.90
2022-09-11T17:08:26.645Z,7.87
2022-09-11T17:10:59.235Z,7.62
2022-09-11T17:13:29.320Z,8.00
2022-09-11T17:16:09.943Z,8.00
2022-09-11T17:18:40.153Z,7.70
2022-09-11T17:21:11.836Z,8.23
2022-09-11T17:23:41.746Z,7.73
2022-09-11T17:26:16.625Z,7.68
2022-09-11T17:28:48.257Z,8.30
2022-09-11T17:31:19.519Z,8.23
2022-09-11T17:33:50.471Z,8.33
2022-09-11T17:36:22.337Z,8.33
2022-09-11T17:38:52.903Z,8.33
2022-09-11T17:41:23.021Z,8.30
2022-09-11T17:43:53.122Z,8.47
2022-09-11T17:46:24.095Z,8.60
2022-09-11T17:48:53.854Z,8.57
2022-09-11T17:51:26.311Z,7.80
2022-09-11T17:53:58.570Z,8.70
2022-09-11T17:56:33.178Z,8.23
2022-09-11T17:59:03.179Z,8.40
2022-09-11T18:01:33.002Z,8.47
2022-09-11T18:04:02.876Z,9.30
2022-09-11T18:06:36.895Z,9.47
2022-09-11T18:09:19.623Z,9.03
2022-09-11T18:11:53.212Z,9.50
2022-09-11T18:14:24.191Z,9.23
2022-09-11T18:16:53.937Z,9.93
2022-09-11T18:19:24.215Z,9.10
2022-09-11T18:21:53.969Z,8.90
2022-09-11T18:24:24.551Z,8.90
2022-09-11T18:27:00.522Z,7.77
2022-09-11T18:29:27.347Z,8.87
2022-09-11T18:31:57.156Z,10.07
2022-09-11T18:34:28.342Z,9.70
2022-09-11T18:36:59.888Z,8.60
2022-09-11T18:39:29.465Z,9.30
2022-09-11T18:42:00.072Z,8.30
2022-09-11T18:44:30.656Z,8.97
2022-09-11T18:47:01.169Z,9.98
2022-09-11T18:49:30.910Z,10.10
2022-09-11T18:52:00.699Z,8.83
2022-09-11T18:54:30.905Z,9.45
2022-09-11T18:57:00.649Z,9.67
2022-09-11T18:59:30.129Z,9.75
2022-09-11T19:02:00.717Z,10.43
2022-09-11T19:04:30.666Z,10.47
2022-09-11T19:07:00.570Z,11.67
2022-09-11T19:09:30.319Z,10.40
2022-09-11T19:12:00.846Z,11.45
2022-09-11T19:14:30.982Z,11.20
2022-09-11T19:17:00.735Z,11.23
2022-09-11T19:19:30.486Z,10.50
2022-09-11T19:22:00.453Z,10.83
2022-09-11T19:24:30.495Z,10.90
2022-09-11T19:27:00.420Z,10.33
2022-09-11T19:29:30.239Z,10.60
2022-09-11T19:32:00.885Z,11.25
2022-09-11T19:34:34.055Z,12.67
2022-09-11T19:37:02.855Z,13.00
2022-09-11T19:39:32.676Z,12.50
2022-09-11T19:42:02.886Z,12.93
2022-09-11T19:44:34.264Z,13.87
2022-09-11T19:47:04.434Z,13.40
2022-09-11T19:49:34.255Z,12.73
2022-09-11T19:52:08.025Z,11.75
2022-09-11T19:54:37.956Z,12.33
2022-09-11T19:57:08.258Z,13.00
2022-09-11T19:59:38.272Z,12.10
2022-09-11T20:02:11.979Z,13.55
2022-09-11T20:04:41.812Z,14.33
2022-09-11T20:07:11.644Z,15.07
2022-09-11T20:09:42.695Z,13.35
2022-09-11T20:12:13.313Z,15.80
2022-09-11T20:14:43.063Z,15.37
2022-09-11T20:17:12.984Z,15.67
2022-09-11T20:19:44.377Z,14.90
2022-09-11T20:22:14.115Z,14.23
2022-09-11T20:24:43.854Z,14.87
2022-09-11T20:27:13.607Z,15.43
2022-09-11T20:29:43.478Z,14.80
2022-09-11T20:32:15.046Z,13.60
2022-09-11T20:34:44.813Z,14.33
2022-09-11T20:37:14.552Z,14.10
2022-09-11T20:39:44.320Z,13.37
2022-09-11T20:42:14.126Z,13.80
2022-09-11T20:44:45.270Z,15.67
2022-09-11T20:47:15.183Z,15.83
2022-09-11T20:49:44.934Z,15.00
2022-09-11T20:52:15.339Z,14.97
2022-09-11T20:54:45.266Z,14.87
2022-09-11T20:57:15.019Z,14.70
2022-09-11T20:59:44.751Z,13.40
2022-09-11T21:02:14.843Z,13.85
2022-09-11T21:04:45.800Z,12.77
2022-09-11T21:07:15.632Z,12.57
2022-09-11T21:09:46.117Z,11.73
2022-09-11T21:12:15.580Z,12.10
2022-09-11T21:14:45.704Z,12.50
2022-09-11T21:17:15.533Z,11.17
2022-09-11T21:19:45.275Z,10.97
2022-09-11T21:22:15.032Z,11.10
2022-09-11T21:24:44.769Z,10.47
2022-09-11T21:27:14.513Z,10.50
2022-09-11T21:29:44.254Z,10.63
2022-09-11T21:32:13.918Z,11.30
2022-09-11T21:34:43.687Z,11.43
2022-09-11T21:37:13.624Z,11.20
2022-09-11T21:39:43.111Z,11.50
2022-09-11T21:42:12.528Z,11.63
2022-09-11T21:44:42.256Z,11.33
2022-09-11T21:47:12.006Z,12.40
2022-09-11T21:49:41.763Z,11.83
2022-09-11T21:52:11.983Z,11.02
2022-09-11T21:54:41.730Z,12.37
2022-09-11T21:57:11.762Z,11.93
2022-09-11T21:59:41.507Z,11.43
2022-09-11T22:02:12.054Z,11.38
2022-09-11T22:04:41.819Z,10.83
2022-09-11T22:07:12.213Z,10.37
2022-09-11T22:09:42.623Z,10.17
2022-09-11T22:12:12.312Z,10.63
2022-09-11T22:14:43.700Z,11.27
2022-09-11T22:17:13.757Z,10.48
2022-09-11T22:19:46.208Z,10.63
2022-09-11T22:22:16.028Z,10.75
2022-09-11T22:24:45.848Z,10.73
2022-09-11T22:27:15.296Z,11.90
2022-09-11T22:29:47.149Z,10.90
2022-09-11T22:32:17.162Z,10.88
2022-09-11T22:34:46.907Z,11.77
2022-09-11T22:37:16.721Z,10.57
2022-09-11T22:39:47.002Z,11.48
2022-09-11T22:42:16.940Z,11.60
2022-09-11T22:44:46.680Z,11.10
2022-09-11T22:47:16.702Z,10.43
2022-09-11T22:49:46.754Z,10.75
2022-09-11T22:52:16.486Z,12.00
2022-09-11T22:54:47.479Z,11.57
2022-09-11T22:57:17.287Z,11.10
2022-09-11T22:59:47.164Z,11.63
2022-09-11T23:02:16.977Z,11.70
2022-09-11T23:04:48.374Z,10.67
2022-09-11T23:07:18.279Z,11.37
2022-09-11T23:09:48.036Z,14.07
2022-09-11T23:12:17.864Z,13.20
2022-09-11T23:14:47.598Z,13.83
2022-09-11T23:17:17.679Z,13.85
2022-09-11T23:19:48.165Z,13.88
2022-09-11T23:22:17.606Z,13.65
2022-09-11T23:24:47.686Z,14.05
2022-09-11T23:27:17.736Z,14.23
2022-09-11T23:29:47.541Z,13.57
2022-09-11T23:32:17.275Z,13.55
2022-09-11T23:34:47.022Z,14.37
2022-09-11T23:37:16.755Z,14.00
2022-09-11T23:39:46.872Z,12.93
2022-09-11T23:42:16.250Z,14.50
2022-09-11T23:44:46.027Z,12.90
2022-09-11T23:47:15.830Z,13.67
2022-09-11T23:49:45.595Z,15.23
2022-09-11T23:52:15.637Z,16.50
2022-09-11T23:54:45.388Z,14.97
2022-09-11T23:57:15.118Z,15.90
2022-09-11T23:59:44.864Z,16.33
